Archival Weather

NSFA McMurdo Sound

NSFA McMurdo Sound, Antarctica (NZCM)

Report from: Tuesday, September 19, 2023 12:08 PM UTC
Current time: Monday, June 17, 2024 9:33 AM UTC

Current weather – Weather history – Daily summaries
Weather forecast

Present weatherLight snow
Temperature-13.7°C (7.3°F)
Wind chill-22.6°C (-8.6°F)
Dew point-18.5°C (-1.3°F)
Winds 11 kts (5.7 m/s, 12.7 mph) North-Northeast (30°)
Visibility6.2 mi. (10 km)
Clouds Ceiling: Overcast 6,000 ft. (1,829 m)
Altimeter28.89 in.Hg (978 mB)
Precip. events Snow ended 12:07 PM
Snow began 12:08 PM
Relative humidity67 %
Density altitude-5,808 ft. (-1,770 m)
Sea-level pressure107.9 kPa (1079 mB, 31.86 in.Hg)
Remarks Fully automated report
Special weather observation
Automated weather observing station with precipitation discriminator
Flight conditions Visual Meteorological Conditions
Raw dataSPECI NZCM 191208Z AUTO 03011KT 9999 -SN OVC060 M14/M19 A2889 RMK AO2 SNE1207B1208 SLP789 T11371185
An error has occurred. This application may no longer respond until reloaded. Reload 🗙